Time;durP1;ratioP1;P1;durP2;ratioP2;P2;SDS_P1;SDS_P2;PMS_P1;PMS_P2;Temp;Humidity;BMP_temperature;BMP_pressure;BME280_temperature;BME280_humidity;BME280_pressure;Samples;Min_cycle;Max_cycle;Signal;HPM_P1;HPM_P2
2022/05/03 00:02:03;;;;;;;3.83;2.58;;;6.90;99.90;;;;;;5001827;28;20046;-65
2022/05/03 00:05:06;;;;;;;3.38;2.67;;;6.90;99.90;;;;;;5000930;28;20806;-65
2022/05/03 00:07:43;;;;;;;2.28;2.00;;;6.80;99.90;;;;;;5001192;28;20484;-65
2022/05/03 00:10:12;;;;;;;2.55;2.30;;;6.70;99.90;;;;;;5017421;28;20689;-65
2022/05/03 00:12:55;;;;;;;3.28;2.20;;;6.70;99.90;;;;;;5003391;28;20045;-65
2022/05/03 00:15:22;;;;;;;5.50;3.95;;;6.60;99.90;;;;;;4999553;28;20046;-65
2022/05/03 00:17:50;;;;;;;4.53;3.92;;;6.60;99.90;;;;;;4999169;28;20520;-65
2022/05/03 00:20:17;;;;;;;5.55;4.15;;;6.60;99.90;;;;;;4983812;28;20046;-65
2022/05/03 00:22:43;;;;;;;5.20;4.22;;;6.60;99.90;;;;;;4999180;28;20045;-65
2022/05/03 00:25:09;;;;;;;5.75;4.10;;;6.60;99.90;;;;;;5031770;28;20091;-65
2022/05/03 00:27:35;;;;;;;5.18;4.53;;;6.50;99.90;;;;;;5031935;28;20459;-65
2022/05/03 00:30:03;;;;;;;7.38;3.85;;;6.50;99.90;;;;;;5002939;28;20050;-66
2022/05/03 00:32:29;;;;;;;4.35;3.95;;;6.40;99.90;;;;;;4995373;28;20598;-65
2022/05/03 00:35:00;;;;;;;4.57;3.67;;;6.40;99.90;;;;;;5002109;28;20029;-65
2022/05/03 00:37:26;;;;;;;6.05;3.53;;;6.40;99.90;;;;;;5031839;28;20049;-65
2022/05/03 00:39:52;;;;;;;5.05;4.50;;;6.30;99.90;;;;;;4999921;28;20030;-65
2022/05/03 00:42:29;;;;;;;5.93;5.18;;;6.30;99.90;;;;;;4999695;28;20439;-65
2022/05/03 00:45:22;;;;;;;5.28;4.78;;;6.30;99.90;;;;;;5028873;28;20464;-65
2022/05/03 00:48:06;;;;;;;6.35;5.60;;;6.20;99.90;;;;;;5014826;28;20472;-65
2022/05/03 00:50:42;;;;;;;7.18;4.40;;;6.20;99.90;;;;;;5001668;28;20050;-65
2022/05/03 00:53:12;;;;;;;4.20;3.80;;;6.30;99.90;;;;;;5000983;28;20524;-65
2022/05/03 00:56:00;;;;;;;6.45;3.50;;;6.20;99.90;;;;;;5001575;28;20053;-65
2022/05/03 00:58:47;;;;;;;4.47;4.05;;;6.20;99.90;;;;;;5001708;28;20136;-65
2022/05/03 01:01:34;;;;;;;6.15;4.35;;;6.10;99.90;;;;;;4999650;28;20115;-65
2022/05/03 01:04:19;;;;;;;5.60;4.65;;;6.10;99.90;;;;;;5013922;28;20046;-65
2022/05/03 01:06:54;;;;;;;6.55;4.78;;;6.00;99.90;;;;;;4998701;28;20129;-65
2022/05/03 01:09:31;;;;;;;6.60;4.30;;;6.00;99.90;;;;;;4983269;28;20144;-66
2022/05/03 01:12:04;;;;;;;5.85;4.10;;;6.00;99.90;;;;;;5001525;28;20224;-65
2022/05/03 01:14:37;;;;;;;7.43;5.07;;;6.00;99.90;;;;;;5037056;28;20046;-65
2022/05/03 01:17:14;;;;;;;5.95;4.55;;;5.90;99.90;;;;;;4998557;28;20125;-65
2022/05/03 01:20:08;;;;;;;6.03;4.28;;;5.90;99.90;;;;;;5002985;28;20302;-65
2022/05/03 01:22:49;;;;;;;4.47;4.07;;;5.90;99.90;;;;;;4998412;28;20113;-65
2022/05/03 01:25:23;;;;;;;6.43;4.20;;;5.90;99.90;;;;;;4999981;28;20107;-65
2022/05/03 01:28:03;;;;;;;4.32;3.65;;;5.90;99.90;;;;;;5010805;28;20180;-65
2022/05/03 01:30:30;;;;;;;4.72;3.92;;;5.80;99.90;;;;;;4998086;28;20639;-65
2022/05/03 01:33:08;;;;;;;7.55;4.70;;;5.80;99.90;;;;;;5001683;28;20400;-65
2022/05/03 01:35:39;;;;;;;6.28;4.13;;;5.70;99.90;;;;;;4995787;28;20045;-65
2022/05/03 01:38:22;;;;;;;6.43;4.70;;;5.70;99.90;;;;;;4999458;28;20046;-65
2022/05/03 01:41:03;;;;;;;7.75;4.65;;;5.70;99.90;;;;;;5001351;28;20041;-65
2022/05/03 01:43:55;;;;;;;6.45;5.72;;;5.70;99.90;;;;;;4996318;28;20041;-65
2022/05/03 01:46:27;;;;;;;6.40;5.07;;;5.70;99.90;;;;;;5016672;28;20042;-65
2022/05/03 01:51:44;;;;;;;8.88;5.70;;;5.60;99.90;;;;;;4996701;28;20064;-65
2022/05/03 01:54:37;;;;;;;8.73;5.85;;;5.60;99.90;;;;;;5000180;28;20054;-65
2022/05/03 01:57:42;;;;;;;8.00;5.85;;;5.60;99.90;;;;;;4997992;28;20515;-65
2022/05/03 02:00:09;;;;;;;4.85;4.32;;;5.60;99.90;;;;;;4957609;28;20043;-65
2022/05/03 02:02:53;;;;;;;4.25;3.53;;;5.60;99.90;;;;;;4997311;28;20042;-65
2022/05/03 02:05:48;;;;;;;4.80;4.20;;;5.60;99.90;;;;;;4999618;28;20491;-65
2022/05/03 02:08:19;;;;;;;6.20;4.30;;;5.50;99.90;;;;;;4997785;28;20104;-65
2022/05/03 02:11:02;;;;;;;5.30;4.45;;;5.60;99.90;;;;;;4999343;28;20065;-65
2022/05/03 02:16:53;;;;;;;7.65;4.15;;;5.50;99.90;;;;;;5002252;28;20053;-65
2022/05/03 02:19:44;;;;;;;4.80;3.78;;;5.40;99.90;;;;;;5031124;28;20046;-65
2022/05/03 02:22:37;;;;;;;4.78;3.67;;;5.40;99.90;;;;;;5027756;28;20049;-65
2022/05/03 02:25:22;;;;;;;7.80;4.05;;;5.40;99.90;;;;;;4999191;28;20135;-65
2022/05/03 02:27:58;;;;;;;5.35;4.85;;;5.30;99.90;;;;;;4997076;28;20722;-65
2022/05/03 02:30:26;;;;;;;6.30;5.07;;;5.30;99.90;;;;;;5001608;28;20196;-65
2022/05/03 02:33:13;;;;;;;6.60;5.68;;;5.30;99.90;;;;;;4983500;28;20131;-65
2022/05/03 02:35:44;;;;;;;5.95;5.35;;;5.30;99.90;;;;;;4998626;28;20377;-65
2022/05/03 02:38:17;;;;;;;5.82;4.70;;;5.20;99.90;;;;;;4999766;28;20048;-65
2022/05/03 02:40:45;;;;;;;6.30;5.30;;;5.20;99.90;;;;;;5003053;28;20069;-65
2022/05/03 02:43:14;;;;;;;5.20;4.72;;;5.30;99.90;;;;;;5003244;28;22322;-65
2022/05/03 02:45:50;;;;;;;5.93;5.28;;;5.20;99.90;;;;;;5033544;28;20103;-65
2022/05/03 02:48:40;;;;;;;4.47;4.07;;;5.20;99.90;;;;;;5001805;28;20059;-65
2022/05/03 02:51:09;;;;;;;7.97;4.32;;;5.20;99.90;;;;;;5002980;28;20064;-65
2022/05/03 02:53:51;;;;;;;4.88;3.58;;;5.20;99.90;;;;;;5003354;28;20042;-65
2022/05/03 02:56:24;;;;;;;5.85;3.90;;;5.10;99.90;;;;;;5002544;28;20042;-65
2022/05/03 02:59:16;;;;;;;5.15;4.65;;;5.10;99.90;;;;;;5004053;28;20058;-65
2022/05/03 03:02:21;;;;;;;6.10;4.68;;;5.10;99.90;;;;;;5001499;28;20045;-65
2022/05/03 03:05:02;;;;;;;5.63;4.68;;;5.10;99.90;;;;;;5033586;28;20042;-65
2022/05/03 03:07:39;;;;;;;6.15;4.85;;;5.10;99.90;;;;;;5003142;28;20056;-65
2022/05/03 03:10:06;;;;;;;7.95;5.15;;;5.10;99.90;;;;;;5005194;28;20048;-65
2022/05/03 03:13:23;;;;;;;7.05;5.30;;;5.00;99.90;;;;;;5002175;28;20148;-65
2022/05/03 03:15:49;;;;;;;5.85;4.97;;;5.00;99.90;;;;;;5002996;28;20464;-65
2022/05/03 03:18:20;;;;;;;5.07;4.18;;;5.00;99.90;;;;;;5028972;28;20108;-65
2022/05/03 03:20:52;;;;;;;8.05;4.38;;;5.00;99.90;;;;;;5001551;28;20034;-65
2022/05/03 03:23:24;;;;;;;6.80;5.72;;;4.90;99.90;;;;;;5002571;28;20116;-65
2022/05/03 03:25:50;;;;;;;5.03;4.22;;;4.90;99.90;;;;;;5004108;28;20042;-65
2022/05/03 03:28:18;;;;;;;7.40;5.85;;;5.00;99.90;;;;;;5002882;28;20038;-65
2022/05/03 03:30:45;;;;;;;4.93;4.13;;;4.90;99.90;;;;;;5033761;28;20050;-65
2022/05/03 03:33:12;;;;;;;4.55;4.13;;;4.90;99.90;;;;;;4998650;28;20056;-65
2022/05/03 03:35:40;;;;;;;6.63;4.40;;;4.90;99.90;;;;;;5002247;28;20053;-65
2022/05/03 03:38:07;;;;;;;5.72;5.13;;;4.80;99.90;;;;;;5002472;28;20038;-65
2022/05/03 03:40:32;;;;;;;8.38;4.72;;;4.80;99.90;;;;;;5005200;28;20049;-65
2022/05/03 03:42:58;;;;;;;6.85;5.00;;;4.80;99.90;;;;;;5028904;28;20042;-65
2022/05/03 03:45:24;;;;;;;6.53;5.63;;;4.70;99.90;;;;;;5001715;28;20073;-65
2022/05/03 03:47:49;;;;;;;7.13;4.93;;;4.80;99.90;;;;;;5001264;28;20135;-65
2022/05/03 03:50:15;;;;;;;5.38;4.88;;;4.70;99.90;;;;;;5002864;28;20451;-65
2022/05/03 03:52:43;;;;;;;3.38;3.08;;;4.70;99.90;;;;;;4998130;28;20125;-65
2022/05/03 03:55:11;;;;;;;6.50;3.42;;;4.70;99.90;;;;;;5032889;28;20467;-65
2022/05/03 03:57:37;;;;;;;6.15;5.00;;;4.70;99.90;;;;;;4997665;28;20096;-65
2022/05/03 04:00:09;;;;;;;8.48;4.30;;;4.60;99.90;;;;;;5003777;28;20046;-65
2022/05/03 04:02:35;;;;;;;6.53;5.38;;;4.70;99.90;;;;;;4998685;28;20036;-65
2022/05/03 04:05:01;;;;;;;6.88;5.10;;;4.70;99.90;;;;;;5001616;28;20038;-64
2022/05/03 04:07:27;;;;;;;7.20;6.47;;;4.70;99.90;;;;;;5003455;28;20044;-65
2022/05/03 04:09:53;;;;;;;8.93;5.93;;;4.70;99.90;;;;;;5002510;28;20438;-65
2022/05/03 04:12:22;;;;;;;7.55;6.75;;;4.70;99.90;;;;;;4999683;28;20049;-65
2022/05/03 04:14:48;;;;;;;9.25;7.30;;;4.80;99.90;;;;;;5013543;28;20034;-65
2022/05/03 04:17:13;;;;;;;9.30;7.53;;;4.90;99.90;;;;;;5001609;28;20064;-65
2022/05/03 04:19:39;;;;;;;9.45;8.55;;;5.00;99.90;;;;;;5000975;28;21451;-65
2022/05/03 04:22:34;;;;;;;10.02;8.95;;;5.10;99.90;;;;;;4999856;28;20483;-65
2022/05/03 04:25:01;;;;;;;14.27;9.50;;;5.20;99.90;;;;;;5001384;28;20387;-65
2022/05/03 04:27:30;;;;;;;11.35;8.13;;;5.30;99.90;;;;;;4999514;28;20069;-65
2022/05/03 04:29:56;;;;;;;10.15;8.75;;;5.40;99.90;;;;;;5001564;28;20500;-65
2022/05/03 04:32:22;;;;;;;9.98;9.07;;;5.50;99.90;;;;;;4997833;28;20050;-65
2022/05/03 04:34:48;;;;;;;10.20;8.88;;;5.60;99.90;;;;;;4998835;28;20050;-65
2022/05/03 04:37:14;;;;;;;10.77;9.20;;;5.70;99.90;;;;;;5031411;28;20056;-65
2022/05/03 04:39:40;;;;;;;17.73;9.23;;;5.80;99.90;;;;;;5002222;28;20092;-65
2022/05/03 04:42:06;;;;;;;16.45;9.65;;;5.80;99.90;;;;;;5031929;28;20049;-65
2022/05/03 04:44:32;;;;;;;16.45;9.68;;;5.90;99.90;;;;;;5001265;28;20109;-65
2022/05/03 04:46:58;;;;;;;11.30;10.05;;;6.10;99.90;;;;;;4999915;28;20072;-65
2022/05/03 04:49:23;;;;;;;10.05;9.13;;;6.60;99.90;;;;;;5001416;28;21641;-65
2022/05/03 04:51:49;;;;;;;17.90;10.52;;;6.20;99.90;;;;;;4994911;28;20044;-65
2022/05/03 04:54:15;;;;;;;20.73;10.65;;;6.40;99.90;;;;;;4998832;28;20046;-65
2022/05/03 04:56:47;;;;;;;25.85;9.55;;;6.70;99.90;;;;;;4998548;28;20045;-65
2022/05/03 04:59:12;;;;;;;25.38;8.38;;;7.10;99.90;;;;;;5000055;28;20046;-65
2022/05/03 05:01:38;;;;;;;10.82;8.30;;;7.50;99.90;;;;;;5000317;28;20042;-65
2022/05/03 05:04:04;;;;;;;11.75;7.90;;;7.80;99.90;;;;;;4995765;28;20472;-65
2022/05/03 05:06:30;;;;;;;12.10;8.43;;;8.10;99.90;;;;;;4996258;28;20046;-65
2022/05/03 05:08:55;;;;;;;18.70;8.63;;;8.30;99.90;;;;;;4997998;28;20042;-66
2022/05/03 05:11:21;;;;;;;8.52;7.47;;;8.40;99.90;;;;;;4999873;28;20407;-65
2022/05/03 05:13:47;;;;;;;12.20;8.40;;;8.30;99.90;;;;;;5004066;28;20460;-65
2022/05/03 05:16:13;;;;;;;16.17;9.50;;;8.30;99.90;;;;;;4999900;28;20045;-65
2022/05/03 05:18:38;;;;;;;16.48;9.10;;;8.20;99.90;;;;;;5006521;28;20120;-65
2022/05/03 05:21:04;;;;;;;30.23;9.23;;;8.20;99.90;;;;;;5006742;28;20451;-65
2022/05/03 05:23:30;;;;;;;14.05;9.02;;;8.10;99.90;;;;;;5004645;28;20534;-65
2022/05/03 05:25:55;;;;;;;16.65;10.65;;;8.10;99.90;;;;;;5005127;28;20109;-65
2022/05/03 05:28:23;;;;;;;13.73;10.70;;;8.10;99.90;;;;;;4997513;28;20916;-65
2022/05/03 05:30:50;;;;;;;11.38;10.20;;;8.00;99.90;;;;;;5000635;28;20488;-65
2022/05/03 05:33:15;;;;;;;11.07;10.07;;;8.00;99.90;;;;;;5000871;28;20041;-65
2022/05/03 05:35:41;;;;;;;12.93;11.55;;;7.90;99.90;;;;;;4997443;28;20108;-65
2022/05/03 05:38:08;;;;;;;18.33;10.63;;;7.90;99.90;;;;;;4999852;28;20037;-65
2022/05/03 05:40:33;;;;;;;12.05;10.88;;;8.00;99.90;;;;;;5003007;28;20038;-65
2022/05/03 05:43:00;;;;;;;18.15;12.20;;;8.00;99.90;;;;;;5018224;28;20107;-65
2022/05/03 05:45:26;;;;;;;16.25;11.90;;;8.00;99.90;;;;;;4999360;28;20860;-65
2022/05/03 05:47:52;;;;;;;13.07;10.73;;;8.00;99.90;;;;;;4999080;28;20053;-65
2022/05/03 05:50:18;;;;;;;13.95;11.43;;;8.10;99.90;;;;;;5002716;28;21541;-66
2022/05/03 05:55:28;;;;;;;13.52;12.20;;;8.20;99.90;;;;;;5003073;28;20054;-65
2022/05/03 05:57:53;;;;;;;14.02;12.57;;;8.30;99.90;;;;;;5039135;28;20124;-65
2022/05/03 06:00:19;;;;;;;16.42;12.93;;;8.30;99.90;;;;;;4988428;28;20128;-65
2022/05/03 06:02:45;;;;;;;14.70;12.75;;;8.30;99.90;;;;;;5005494;28;20041;-66
2022/05/03 06:05:11;;;;;;;15.13;12.38;;;8.40;99.90;;;;;;5038679;28;20444;-66
2022/05/03 06:07:37;;;;;;;18.75;12.38;;;8.40;99.90;;;;;;5008483;28;20108;-66
2022/05/03 06:10:04;;;;;;;26.13;13.10;;;8.40;99.90;;;;;;4988820;28;20626;-66
2022/05/03 06:12:31;;;;;;;17.38;12.52;;;8.50;99.90;;;;;;4970260;28;20050;-66
2022/05/03 06:14:57;;;;;;;15.20;12.68;;;8.40;99.90;;;;;;5013821;28;20045;-66
2022/05/03 06:17:22;;;;;;;21.50;12.48;;;8.40;99.90;;;;;;5000288;28;20087;-66
2022/05/03 06:19:49;;;;;;;16.77;11.95;;;8.40;99.90;;;;;;4991655;28;20689;-66
2022/05/03 06:22:15;;;;;;;16.63;12.30;;;8.50;99.90;;;;;;5002393;28;20049;-66
2022/05/03 06:24:42;;;;;;;17.60;12.32;;;8.50;99.90;;;;;;5000564;28;20424;-66
2022/05/03 06:27:08;;;;;;;17.17;12.85;;;8.60;99.90;;;;;;5004982;28;20026;-66
2022/05/03 06:29:34;;;;;;;18.67;12.45;;;8.60;99.90;;;;;;5001751;28;20037;-66
2022/05/03 06:32:00;;;;;;;19.77;13.88;;;8.60;99.90;;;;;;5001034;28;20034;-66
2022/05/03 06:34:26;;;;;;;24.30;14.95;;;8.70;99.90;;;;;;4999528;28;20042;-66
2022/05/03 06:36:52;;;;;;;16.27;13.85;;;8.80;99.90;;;;;;5003144;28;20045;-66
2022/05/03 06:39:18;;;;;;;17.83;14.10;;;8.80;99.90;;;;;;5003625;28;20156;-66
2022/05/03 06:41:43;;;;;;;16.05;13.27;;;8.90;99.90;;;;;;5001560;28;20392;-66
2022/05/03 06:44:09;;;;;;;18.25;15.15;;;9.00;99.90;;;;;;5001808;28;20083;-66
2022/05/03 06:46:35;;;;;;;23.15;16.60;;;9.10;99.90;;;;;;5004297;28;20040;-66
2022/05/03 06:49:00;;;;;;;27.80;19.23;;;9.10;99.90;;;;;;4983330;28;20492;-66
2022/05/03 06:51:26;;;;;;;22.65;18.38;;;9.10;99.90;;;;;;4998533;28;20057;-66
2022/05/03 06:53:52;;;;;;;21.55;18.77;;;9.20;99.90;;;;;;5000845;28;20050;-66
2022/05/03 06:56:18;;;;;;;21.85;17.77;;;9.20;99.90;;;;;;5001551;28;20033;-66
2022/05/03 06:58:45;;;;;;;23.65;17.00;;;9.30;99.90;;;;;;4999503;28;20128;-66
2022/05/03 07:01:15;;;;;;;27.13;18.30;;;9.40;99.90;;;;;;5003697;28;20099;-66
2022/05/03 07:03:42;;;;;;;75.30;28.88;;;9.40;99.90;;;;;;5035975;28;20037;-66
2022/05/03 07:06:09;;;;;;;34.45;21.85;;;9.50;99.90;;;;;;5033706;28;20118;-66
2022/05/03 07:08:35;;;;;;;70.38;29.52;;;9.50;99.90;;;;;;5008063;28;20042;-65
2022/05/03 07:11:02;;;;;;;44.13;25.73;;;9.60;99.90;;;;;;5001865;28;20966;-66
2022/05/03 07:13:28;;;;;;;405.58;95.68;;;9.60;99.90;;;;;;5002545;28;20042;-66
2022/05/03 07:15:55;;;;;;;70.65;31.48;;;9.70;99.90;;;;;;5000072;28;21105;-66
2022/05/03 07:24:09;;;;;;;73.00;30.58;;;9.80;99.90;;;;;;4952238;28;20047;-66
2022/05/03 07:26:34;;;;;;;69.80;30.10;;;9.80;99.90;;;;;;4981293;28;20050;-66
2022/05/03 07:29:00;;;;;;;69.03;33.33;;;9.90;99.90;;;;;;5008642;28;20061;-66
2022/05/03 07:31:26;;;;;;;89.63;35.40;;;9.90;99.90;;;;;;5003115;28;20037;-66
2022/05/03 07:33:52;;;;;;;72.28;32.90;;;10.00;99.90;;;;;;5007484;28;20060;-66
2022/05/03 07:36:20;;;;;;;65.70;33.03;;;10.10;99.90;;;;;;5002636;28;20132;-66
2022/05/03 07:38:46;;;;;;;71.45;33.35;;;10.10;99.90;;;;;;5005662;28;20404;-66
2022/05/03 07:41:13;;;;;;;69.00;31.67;;;10.20;99.90;;;;;;5003358;28;20039;-66
2022/05/03 07:43:38;;;;;;;63.63;32.28;;;10.20;99.90;;;;;;5039222;28;20042;-66
2022/05/03 07:46:04;;;;;;;52.38;29.23;;;10.20;99.90;;;;;;5003589;28;20140;-66
2022/05/03 07:48:30;;;;;;;65.65;28.98;;;10.30;99.90;;;;;;5009705;28;20129;-65
2022/05/03 07:50:56;;;;;;;70.18;29.67;;;10.70;99.90;;;;;;5034912;28;20045;-66
2022/05/03 07:53:22;;;;;;;51.38;28.85;;;10.30;99.90;;;;;;5006376;28;20057;-66
2022/05/03 07:55:48;;;;;;;41.78;26.20;;;10.30;99.90;;;;;;5002385;28;20077;-66
2022/05/03 07:58:15;;;;;;;38.60;24.88;;;10.30;99.90;;;;;;5003392;28;20050;-65
2022/05/03 08:00:41;;;;;;;41.28;26.05;;;10.30;99.90;;;;;;5037421;28;20125;-66
2022/05/03 08:03:07;;;;;;;39.13;22.55;;;10.10;99.90;;;;;;5033354;28;20369;-66
2022/05/03 08:05:33;;;;;;;39.75;20.83;;;10.20;99.90;;;;;;5008748;28;20041;-65
2022/05/03 08:07:59;;;;;;;30.08;19.23;;;10.10;99.90;;;;;;5002579;28;20834;-65
2022/05/03 08:10:25;;;;;;;36.53;19.33;;;10.10;99.90;;;;;;5003924;28;20042;-66
2022/05/03 08:12:51;;;;;;;27.58;15.05;;;10.10;99.90;;;;;;5002975;28;20038;-66
2022/05/03 08:15:21;;;;;;;22.80;14.75;;;10.10;99.90;;;;;;5001823;28;20042;-66
2022/05/03 08:17:47;;;;;;;24.80;12.82;;;10.10;99.90;;;;;;5004283;28;20149;-68
2022/05/03 08:20:13;;;;;;;18.00;11.00;;;10.20;99.90;;;;;;5034487;28;20125;-65
2022/05/03 08:22:39;;;;;;;30.17;12.60;;;10.20;99.90;;;;;;5004863;28;20034;-65
2022/05/03 08:25:06;;;;;;;11.95;7.57;;;10.30;99.90;;;;;;5007551;28;20037;-65
2022/05/03 08:27:34;;;;;;;16.15;7.07;;;10.20;99.90;;;;;;5006538;28;20123;-66
2022/05/03 08:29:59;;;;;;;19.52;6.38;;;10.30;99.90;;;;;;5003852;28;20034;-65
2022/05/03 08:32:25;;;;;;;13.02;4.93;;;10.30;99.90;;;;;;5001288;28;20045;-64
2022/05/03 08:34:51;;;;;;;13.38;5.75;;;10.30;99.90;;;;;;5004407;28;20403;-63
2022/05/03 08:42:45;;;;;;;11.30;4.95;;;10.50;99.90;;;;;;5003884;28;20657;-63
2022/05/03 08:45:11;;;;;;;10.25;4.20;;;10.50;99.90;;;;;;5006408;28;20104;-63
2022/05/03 08:47:38;;;;;;;11.68;4.68;;;10.60;99.90;;;;;;5002865;28;20114;-62
2022/05/03 08:50:06;;;;;;;11.23;3.88;;;10.70;99.90;;;;;;5003424;28;20034;-63
2022/05/03 08:52:47;;;;;;;9.80;4.15;;;10.80;99.90;;;;;;5000315;28;20052;-62
2022/05/03 08:55:14;;;;;;;9.27;4.50;;;10.90;99.90;;;;;;5001347;28;20516;-62
2022/05/03 08:57:42;;;;;;;13.18;4.68;;;10.90;99.90;;;;;;4999099;28;20057;-63
2022/05/03 09:00:09;;;;;;;12.57;5.47;;;10.90;99.90;;;;;;5002700;28;20038;-62
2022/05/03 09:02:41;;;;;;;16.67;5.85;;;11.00;99.90;;;;;;5007739;28;20065;-63
2022/05/03 09:05:08;;;;;;;12.75;5.97;;;11.00;99.90;;;;;;5036484;28;20104;-63
2022/05/03 09:07:36;;;;;;;12.52;4.80;;;11.00;99.90;;;;;;4983361;28;20057;-63
2022/05/03 09:10:16;;;;;;;14.60;4.40;;;10.90;99.90;;;;;;5004926;28;20389;-63
2022/05/03 09:12:44;;;;;;;13.70;4.75;;;10.80;99.90;;;;;;5002835;28;20046;-63
2022/05/03 09:15:10;;;;;;;18.60;5.68;;;10.80;99.90;;;;;;5006987;28;20447;-63
2022/05/03 09:17:44;;;;;;;16.48;5.35;;;10.70;99.90;;;;;;5003799;28;20050;-63
2022/05/03 09:26:24;;;;;;;14.70;4.80;;;10.70;99.90;;;;;;4980674;28;20603;-63
2022/05/03 09:28:53;;;;;;;17.77;5.13;;;10.80;99.90;;;;;;5006196;28;20054;-62
2022/05/03 09:31:48;;;;;;;15.65;5.32;;;10.80;99.90;;;;;;5002697;28;20498;-62
2022/05/03 09:34:26;;;;;;;15.80;5.65;;;10.70;99.90;;;;;;5001710;28;20073;-63
2022/05/03 09:36:58;;;;;;;17.13;4.88;;;10.70;99.90;;;;;;5039527;28;20121;-63
2022/05/03 09:39:26;;;;;;;15.70;5.03;;;10.90;99.90;;;;;;5005195;28;20042;-63
2022/05/03 09:42:11;;;;;;;15.88;5.18;;;10.80;99.90;;;;;;5036258;28;20038;-63
2022/05/03 09:44:50;;;;;;;15.53;5.67;;;10.80;99.90;;;;;;5002742;28;20045;-63
2022/05/03 09:47:16;;;;;;;21.85;4.90;;;11.00;99.90;;;;;;5001744;28;20038;-63
2022/05/03 09:49:43;;;;;;;14.85;4.88;;;11.10;99.90;;;;;;5000041;28;20044;-63
2022/05/03 09:52:40;;;;;;;15.18;4.53;;;11.10;99.90;;;;;;5004090;28;20148;-63
2022/05/03 09:55:09;;;;;;;13.93;4.60;;;11.20;99.90;;;;;;5029366;28;20054;-62
2022/05/03 09:57:39;;;;;;;14.45;4.80;;;11.30;99.90;;;;;;5003113;28;20045;-63
2022/05/03 10:00:07;;;;;;;16.40;5.45;;;11.10;99.90;;;;;;4985357;28;20033;-62
2022/05/03 10:02:34;;;;;;;18.52;4.78;;;11.20;99.90;;;;;;5037208;28;20041;-63
2022/05/03 10:05:00;;;;;;;16.60;4.47;;;11.30;99.90;;;;;;4996898;28;20065;-63
2022/05/03 10:07:27;;;;;;;15.85;4.53;;;11.30;99.90;;;;;;5000711;28;20476;-63
2022/05/03 10:09:53;;;;;;;14.82;4.72;;;11.40;99.90;;;;;;5002756;28;20099;-63
2022/05/03 10:12:19;;;;;;;9.13;3.97;;;11.50;99.90;;;;;;5002640;28;20030;-63
2022/05/03 10:14:47;;;;;;;16.77;4.80;;;11.40;99.90;;;;;;5002728;28;20042;-63
2022/05/03 10:23:01;;;;;;;16.02;4.00;;;11.30;99.90;;;;;;5002071;28;20117;-62
2022/05/03 10:25:47;;;;;;;12.43;4.80;;;11.20;99.90;;;;;;5001175;28;22310;-63
2022/05/03 10:28:14;;;;;;;14.73;5.13;;;11.20;99.90;;;;;;4992185;28;20045;-63
2022/05/03 10:31:05;;;;;;;15.18;4.18;;;11.30;99.90;;;;;;5003927;28;20049;-62
2022/05/03 10:33:31;;;;;;;14.25;3.92;;;11.30;99.90;;;;;;5000649;28;20157;-63
2022/05/03 10:35:58;;;;;;;18.67;4.80;;;11.30;99.90;;;;;;5002234;28;20132;-63
2022/05/03 10:38:46;;;;;;;15.32;3.95;;;11.50;99.90;;;;;;5004033;28;20065;-63
2022/05/03 10:41:22;;;;;;;9.07;3.42;;;11.60;99.90;;;;;;5001290;28;20034;-62
2022/05/03 10:43:48;;;;;;;;;;;11.60;99.90;;;;;;5003851;28;20049;-63
2022/05/03 10:46:20;;;;;;;16.20;3.30;;;11.70;99.90;;;;;;5002954;28;19917;-63
2022/05/03 10:49:04;;;;;;;11.75;3.97;;;11.80;99.90;;;;;;5001203;28;20038;-63
2022/05/03 10:51:30;;;;;;;13.35;3.05;;;11.90;99.90;;;;;;4997727;28;20065;-62
2022/05/03 10:53:59;;;;;;;8.57;2.95;;;12.00;99.90;;;;;;5003603;28;20077;-63
2022/05/03 10:56:25;;;;;;;15.50;5.00;;;12.20;99.90;;;;;;5000975;28;20416;-63
2022/05/03 10:59:10;;;;;;;19.27;4.25;;;12.30;99.90;;;;;;5003649;28;20236;-62
2022/05/03 11:01:55;;;;;;;11.20;3.00;;;12.40;99.90;;;;;;5002552;28;20042;-62
2022/05/03 11:04:21;;;;;;;13.88;4.05;;;12.50;99.90;;;;;;5006134;28;20400;-62
2022/05/03 11:06:49;;;;;;;15.15;3.78;;;12.50;99.90;;;;;;5000394;28;20042;-62
2022/05/03 11:09:29;;;;;;;16.52;4.50;;;12.50;99.90;;;;;;5010557;28;20038;-63
2022/05/03 11:11:57;;;;;;;8.25;2.63;;;12.60;99.90;;;;;;5007192;28;20041;-62
2022/05/03 11:14:24;;;;;;;14.70;3.15;;;12.60;99.90;;;;;;5034596;28;20472;-63
2022/05/03 11:17:02;;;;;;;17.73;5.25;;;12.70;99.90;;;;;;5007348;28;20049;-63
2022/05/03 11:19:29;;;;;;;18.73;4.20;;;12.70;99.90;;;;;;5007640;28;20045;-63
2022/05/03 11:21:55;;;;;;;16.50;3.92;;;12.70;99.90;;;;;;5004257;28;20065;-62
2022/05/03 11:24:26;;;;;;;12.20;2.67;;;12.80;99.90;;;;;;5006273;28;20684;-63
2022/05/03 11:26:53;;;;;;;8.30;2.70;;;13.00;99.90;;;;;;5003050;28;20120;-63
2022/05/03 11:29:20;;;;;;;11.02;2.60;;;13.00;99.90;;;;;;5008385;28;20038;-63
2022/05/03 11:31:47;;;;;;;9.98;2.25;;;13.10;99.90;;;;;;5003522;28;20061;-63
2022/05/03 11:34:13;;;;;;;10.02;2.92;;;13.10;99.90;;;;;;5003112;28;20045;-63
2022/05/03 11:36:44;;;;;;;6.85;2.15;;;13.10;99.90;;;;;;5007355;28;20404;-63
2022/05/03 11:39:10;;;;;;;11.32;2.45;;;13.20;99.90;;;;;;5020616;28;20042;-63
2022/05/03 11:41:37;;;;;;;9.02;2.75;;;13.20;99.90;;;;;;5007386;28;20416;-63
2022/05/03 11:44:03;;;;;;;8.05;1.92;;;13.30;99.90;;;;;;5036299;28;20431;-63
2022/05/03 11:46:30;;;;;;;9.57;2.72;;;13.30;99.90;;;;;;5004792;28;20893;-63
2022/05/03 11:49:02;;;;;;;11.18;2.40;;;13.30;99.90;;;;;;5020644;28;20096;-63
2022/05/03 11:57:32;;;;;;;9.38;2.10;;;13.60;99.90;;;;;;5007044;28;20054;-63
2022/05/03 12:00:00;;;;;;;8.95;2.17;;;13.80;99.90;;;;;;5005524;28;20037;-63
2022/05/03 12:02:36;;;;;;;10.93;2.85;;;13.90;99.90;;;;;;5004187;28;20048;-63
2022/05/03 12:05:10;;;;;;;6.38;2.05;;;14.00;99.90;;;;;;5000247;28;20439;-63
2022/05/03 12:07:47;;;;;;;10.52;2.35;;;14.10;99.90;;;;;;4989376;28;20046;-63
2022/05/03 12:10:20;;;;;;;4.50;1.52;;;14.10;99.90;;;;;;5005322;28;20030;-63
2022/05/03 12:12:47;;;;;;;9.63;2.10;;;14.00;99.90;;;;;;5022411;28;20137;-63
2022/05/03 12:15:25;;;;;;;10.43;2.17;;;14.10;99.90;;;;;;5005642;28;20065;-63
2022/05/03 12:18:00;;;;;;;9.13;1.70;;;14.10;99.90;;;;;;5036912;28;20049;-63
2022/05/03 12:20:39;;;;;;;7.75;1.95;;;14.30;99.90;;;;;;5006367;28;20049;-63
2022/05/03 12:23:13;;;;;;;8.90;1.80;;;14.20;99.90;;;;;;5006932;28;20065;-63
2022/05/03 12:25:44;;;;;;;7.07;1.48;;;14.20;99.90;;;;;;5006203;28;20042;-63
2022/05/03 12:28:10;;;;;;;10.48;2.13;;;14.20;99.90;;;;;;5007882;28;20046;-63
2022/05/03 12:30:36;;;;;;;8.98;1.75;;;14.30;99.90;;;;;;5004896;28;21796;-63
2022/05/03 12:33:12;;;;;;;7.10;2.33;;;14.40;99.90;;;;;;5007344;28;20053;-63
2022/05/03 12:35:42;;;;;;;6.65;1.52;;;14.60;99.90;;;;;;5020789;28;20050;-63
2022/05/03 12:38:16;;;;;;;6.82;1.27;;;14.80;99.90;;;;;;5004745;28;20091;-63
2022/05/03 12:40:56;;;;;;;9.20;1.60;;;14.80;99.90;;;;;;5021482;28;20042;-65
2022/05/03 12:43:27;;;;;;;6.05;1.27;;;14.90;99.90;;;;;;5009626;28;20388;-63
2022/05/03 12:46:02;;;;;;;10.07;1.42;;;15.10;99.90;;;;;;5005433;28;20502;-63
2022/05/03 12:48:28;;;;;;;8.85;1.80;;;15.10;99.90;;;;;;5007882;28;20091;-63
2022/05/03 12:50:56;;;;;;;7.13;2.40;;;15.20;99.90;;;;;;5007023;28;20037;-63
2022/05/03 12:53:32;;;;;;;9.02;1.48;;;15.10;99.90;;;;;;5005328;28;20103;-63
2022/05/03 12:58:43;;;;;;;10.13;1.42;;;14.90;99.90;;;;;;5018859;28;20050;-63
2022/05/03 13:01:11;;;;;;;6.30;1.65;;;14.80;99.90;;;;;;5006232;28;20034;-63
2022/05/03 13:03:38;;;;;;;8.77;1.50;;;14.60;99.90;;;;;;5033837;28;20127;-63
2022/05/03 13:06:04;;;;;;;9.88;1.80;;;14.60;99.90;;;;;;5036396;28;20044;-63
2022/05/03 13:08:30;;;;;;;7.20;1.83;;;14.70;99.90;;;;;;5004894;28;20408;-64
2022/05/03 13:10:57;;;;;;;7.75;1.70;;;14.80;99.90;;;;;;5003058;28;20416;-63
2022/05/03 13:13:24;;;;;;;8.25;1.25;;;14.90;99.90;;;;;;5002402;28;21028;-63
2022/05/03 13:15:51;;;;;;;9.68;1.48;;;15.00;99.90;;;;;;5007043;28;20412;-63
2022/05/03 13:18:17;;;;;;;9.80;3.08;;;14.90;99.90;;;;;;5004548;28;20937;-63
2022/05/03 13:20:43;;;;;;;5.55;1.45;;;14.90;99.90;;;;;;5003627;28;20034;-63
2022/05/03 13:23:11;;;;;;;8.85;1.83;;;15.00;99.90;;;;;;5004471;28;20053;-63
2022/05/03 13:25:37;;;;;;;5.65;1.40;;;15.00;99.60;;;;;;5004362;28;20072;-63
2022/05/03 13:28:05;;;;;;;5.18;2.13;;;15.00;99.90;;;;;;5035339;28;20073;-63
2022/05/03 13:30:32;;;;;;;6.60;1.60;;;15.00;98.80;;;;;;5003669;28;20056;-63
2022/05/03 13:32:58;;;;;;;4.70;1.20;;;14.80;98.60;;;;;;5002912;28;20049;-64
2022/05/03 13:40:55;;;;;;;6.75;1.52;;;14.60;99.40;;;;;;5032011;28;20395;-63
2022/05/03 13:43:22;;;;;;;9.18;1.55;;;14.50;98.30;;;;;;5002499;28;20054;-63
2022/05/03 13:45:48;;;;;;;8.55;1.70;;;14.50;99.90;;;;;;5000306;28;20043;-63
2022/05/03 13:48:15;;;;;;;5.35;1.60;;;14.60;99.90;;;;;;5002715;28;20408;-63
2022/05/03 13:50:42;;;;;;;3.70;1.40;;;14.70;99.90;;;;;;5031550;28;20112;-63